createdAt,value
2022-09-07T00:00:50.856Z,19.00
2022-09-07T00:03:18.383Z,19.00
2022-09-07T00:05:48.333Z,18.90
2022-09-07T00:08:19.217Z,18.90
2022-09-07T00:10:54.823Z,18.90
2022-09-07T00:13:23.108Z,18.80
2022-09-07T00:15:50.330Z,18.80
2022-09-07T00:18:17.437Z,18.70
2022-09-07T00:20:44.280Z,18.70
2022-09-07T00:23:11.357Z,18.60
2022-09-07T00:25:40.447Z,18.70
2022-09-07T00:28:09.018Z,18.80
2022-09-07T00:30:42.160Z,18.90
2022-09-07T00:33:09.783Z,18.70
2022-09-07T00:35:41.495Z,18.80
2022-09-07T00:38:09.279Z,18.70
2022-09-07T00:40:36.495Z,18.80
2022-09-07T00:43:04.153Z,18.80
2022-09-07T00:45:31.348Z,18.80
2022-09-07T00:48:18.081Z,18.70
2022-09-07T00:50:50.959Z,18.70
2022-09-07T00:53:28.320Z,18.60
2022-09-07T00:55:57.803Z,18.60
2022-09-07T00:58:25.475Z,18.70
2022-09-07T01:00:52.349Z,18.60
2022-09-07T01:03:29.594Z,18.60
2022-09-07T01:06:13.382Z,18.60
2022-09-07T01:08:43.130Z,18.70
2022-09-07T01:11:11.161Z,18.60
2022-09-07T01:13:43.020Z,18.60
2022-09-07T01:16:31.966Z,18.60
2022-09-07T01:19:26.234Z,18.70
2022-09-07T01:22:33.010Z,18.70
2022-09-07T01:25:48.477Z,18.60
2022-09-07T01:28:28.955Z,18.50
2022-09-07T01:31:42.849Z,18.60
2022-09-07T01:34:28.565Z,18.40
2022-09-07T01:37:19.978Z,18.20
2022-09-07T01:40:00.440Z,18.10
2022-09-07T01:43:08.909Z,17.80
2022-09-07T01:45:42.039Z,17.80
2022-09-07T01:48:16.557Z,18.00
2022-09-07T01:51:13.718Z,18.10
2022-09-07T01:53:50.336Z,18.10
2022-09-07T01:56:34.980Z,18.10
2022-09-07T01:59:35.048Z,18.10
2022-09-07T02:02:10.674Z,17.90
2022-09-07T02:04:48.344Z,17.90
2022-09-07T02:07:27.804Z,18.00
2022-09-07T02:10:13.035Z,18.00
2022-09-07T02:12:53.197Z,18.00
2022-09-07T02:15:38.272Z,18.00
2022-09-07T02:18:07.978Z,18.00
2022-09-07T02:20:39.394Z,18.00
2022-09-07T02:23:22.174Z,17.90
2022-09-07T02:25:59.159Z,17.90
2022-09-07T02:28:33.704Z,17.80
2022-09-07T02:31:01.695Z,17.90
2022-09-07T02:33:29.742Z,17.90
2022-09-07T02:35:57.702Z,18.00
2022-09-07T02:38:25.563Z,18.00
2022-09-07T02:40:55.467Z,18.00
2022-09-07T02:43:25.217Z,18.00
2022-09-07T02:46:35.848Z,18.00
2022-09-07T02:49:21.010Z,17.90
2022-09-07T02:52:52.451Z,18.00
2022-09-07T02:55:56.927Z,18.10
2022-09-07T02:59:02.878Z,18.10
2022-09-07T03:01:50.706Z,18.10
2022-09-07T03:04:46.583Z,18.10
2022-09-07T03:07:22.368Z,18.10
2022-09-07T03:09:54.825Z,18.10
2022-09-07T03:12:21.893Z,18.20
2022-09-07T03:14:49.067Z,18.20
2022-09-07T03:17:16.043Z,18.20
2022-09-07T03:19:42.863Z,18.20
2022-09-07T03:22:09.637Z,18.10
2022-09-07T03:24:36.979Z,18.10
2022-09-07T03:27:03.993Z,18.00
2022-09-07T03:29:30.864Z,18.10
2022-09-07T03:31:57.663Z,18.00
2022-09-07T03:34:24.416Z,18.00
2022-09-07T03:36:51.207Z,18.00
2022-09-07T03:39:20.794Z,18.00
2022-09-07T03:41:47.803Z,18.00
2022-09-07T03:44:14.673Z,18.00
2022-09-07T03:46:41.516Z,18.00
2022-09-07T03:49:08.322Z,18.00
2022-09-07T03:51:35.091Z,18.00
2022-09-07T03:54:02.140Z,17.90
2022-09-07T03:56:28.985Z,17.90
2022-09-07T03:58:56.050Z,18.00
2022-09-07T04:01:25.541Z,18.00
2022-09-07T04:03:53.604Z,18.10
2022-09-07T04:06:20.536Z,18.00
2022-09-07T04:08:47.633Z,18.00
2022-09-07T04:11:18.503Z,17.90
2022-09-07T04:13:46.284Z,17.80
2022-09-07T04:16:26.555Z,17.70
2022-09-07T04:18:54.779Z,17.80
2022-09-07T04:21:24.001Z,17.80
2022-09-07T04:23:51.286Z,17.80
2022-09-07T04:26:31.564Z,17.90
2022-09-07T04:29:01.076Z,17.80
2022-09-07T04:31:28.393Z,17.80
2022-09-07T04:33:56.496Z,17.80
2022-09-07T04:36:24.734Z,17.80
2022-09-07T04:39:00.753Z,17.80
2022-09-07T04:41:30.939Z,17.70
2022-09-07T04:44:00.746Z,17.70
2022-09-07T04:46:33.675Z,17.70
2022-09-07T04:49:09.220Z,17.70
2022-09-07T04:51:38.442Z,17.70
2022-09-07T04:54:06.173Z,17.70
2022-09-07T04:56:33.662Z,17.60
2022-09-07T04:59:03.758Z,17.60
2022-09-07T05:01:31.090Z,17.50
2022-09-07T05:04:01.406Z,17.50
2022-09-07T05:06:28.956Z,17.40
2022-09-07T05:08:56.501Z,17.40
2022-09-07T05:11:29.180Z,17.50
2022-09-07T05:14:01.418Z,17.50
2022-09-07T05:16:30.196Z,17.40
2022-09-07T05:19:02.423Z,17.30
2022-09-07T05:21:33.318Z,17.30
2022-09-07T05:24:01.362Z,17.50
2022-09-07T05:26:31.743Z,17.60
2022-09-07T05:31:49.471Z,17.70
2022-09-07T05:34:32.219Z,17.80
2022-09-07T05:37:00.232Z,17.80
2022-09-07T05:39:27.954Z,17.70
2022-09-07T05:41:55.128Z,17.60
2022-09-07T05:47:09.815Z,17.60
2022-09-07T05:49:37.433Z,17.50
2022-09-07T05:52:04.248Z,17.50
2022-09-07T05:54:31.075Z,17.60
2022-09-07T05:56:57.861Z,17.60
2022-09-07T05:59:24.744Z,17.60
2022-09-07T06:01:51.672Z,17.60
2022-09-07T06:04:18.580Z,17.70
2022-09-07T06:06:59.336Z,17.80
2022-09-07T06:09:32.261Z,17.80
2022-09-07T06:11:59.087Z,17.80
2022-09-07T06:14:25.843Z,17.90
2022-09-07T06:16:53.646Z,17.90
2022-09-07T06:19:20.439Z,18.00
2022-09-07T06:21:47.182Z,18.10
2022-09-07T06:24:14.045Z,18.20
2022-09-07T06:26:40.931Z,18.30
2022-09-07T06:29:10.068Z,18.30
2022-09-07T06:34:24.036Z,18.40
2022-09-07T06:36:50.806Z,18.80
2022-09-07T06:39:17.556Z,18.90
2022-09-07T06:41:59.808Z,18.90
2022-09-07T06:44:31.143Z,18.80
2022-09-07T06:49:28.563Z,19.20
2022-09-07T06:51:55.620Z,19.10
2022-09-07T06:57:09.906Z,19.10
2022-09-07T06:59:38.068Z,19.00
2022-09-07T07:02:07.023Z,19.10
2022-09-07T07:04:39.379Z,19.00
2022-09-07T07:07:12.238Z,19.00
2022-09-07T07:09:40.040Z,19.10
2022-09-07T07:12:07.130Z,19.50
2022-09-07T07:14:37.254Z,19.30
2022-09-07T07:17:08.315Z,19.90
2022-09-07T07:19:35.075Z,20.10
2022-09-07T07:24:48.727Z,20.10
2022-09-07T07:27:15.568Z,19.90
2022-09-07T07:29:45.724Z,20.00
2022-09-07T07:32:12.629Z,20.40
2022-09-07T07:34:58.733Z,20.70
2022-09-07T07:37:28.194Z,20.70
2022-09-07T07:42:42.811Z,20.30
2022-09-07T07:47:58.002Z,20.40
2022-09-07T07:50:32.777Z,20.10
2022-09-07T07:55:47.613Z,20.00
2022-09-07T07:58:14.357Z,20.40
2022-09-07T08:00:54.436Z,20.60
2022-09-07T08:03:23.627Z,20.90
2022-09-07T08:05:50.647Z,20.90
2022-09-07T08:08:18.006Z,21.10
2022-09-07T08:10:47.149Z,21.10
2022-09-07T08:13:15.704Z,21.00
2022-09-07T08:15:46.404Z,21.20
2022-09-07T08:18:16.298Z,21.00
2022-09-07T08:20:43.555Z,21.00
2022-09-07T08:23:10.633Z,21.00
2022-09-07T08:25:37.512Z,21.10
2022-09-07T08:28:05.347Z,21.10
2022-09-07T08:30:32.153Z,21.20
2022-09-07T08:32:58.938Z,21.00
2022-09-07T08:35:25.722Z,20.70
2022-09-07T08:37:52.490Z,21.00
2022-09-07T08:40:20.440Z,21.40
2022-09-07T08:43:16.050Z,21.50
2022-09-07T08:45:54.466Z,21.60
2022-09-07T08:48:33.268Z,21.60
2022-09-07T08:51:19.120Z,21.70
2022-09-07T08:53:50.478Z,21.50
2022-09-07T08:56:31.520Z,21.70
2022-09-07T08:59:09.150Z,21.50
2022-09-07T09:01:44.078Z,21.60
2022-09-07T09:04:31.469Z,21.80
2022-09-07T09:07:31.504Z,21.90
2022-09-07T09:10:19.820Z,22.00
2022-09-07T09:13:09.746Z,22.00
2022-09-07T09:16:10.213Z,22.00
2022-09-07T09:19:12.056Z,22.00
2022-09-07T09:21:40.701Z,21.90
2022-09-07T09:24:19.843Z,21.80
2022-09-07T09:26:53.914Z,21.90
2022-09-07T09:29:22.919Z,22.20
2022-09-07T09:31:49.832Z,22.20
2022-09-07T09:34:23.768Z,22.30
2022-09-07T09:36:58.749Z,22.30
2022-09-07T09:39:35.272Z,22.30
2022-09-07T09:42:23.920Z,22.30
2022-09-07T09:44:51.686Z,22.40
2022-09-07T09:47:32.890Z,22.40
2022-09-07T09:50:07.556Z,22.50
2022-09-07T09:52:45.365Z,22.60
2022-09-07T09:55:36.151Z,22.70
2022-09-07T10:01:35.916Z,22.90
2022-09-07T10:04:32.946Z,23.10
2022-09-07T10:07:14.829Z,23.20
2022-09-07T10:09:49.678Z,23.20
2022-09-07T10:12:33.223Z,23.30
2022-09-07T10:15:03.191Z,23.50
2022-09-07T10:17:40.668Z,23.50
2022-09-07T10:20:16.079Z,23.50
2022-09-07T10:23:02.521Z,23.40
2022-09-07T10:25:37.523Z,23.40
2022-09-07T10:28:13.888Z,23.50
2022-09-07T10:31:15.668Z,23.60
2022-09-07T10:34:28.688Z,23.50
2022-09-07T10:37:09.336Z,23.60
2022-09-07T10:39:42.546Z,23.70
2022-09-07T10:42:09.315Z,23.80
2022-09-07T10:45:03.160Z,23.70
2022-09-07T10:47:58.552Z,23.80
2022-09-07T10:51:17.880Z,23.70
2022-09-07T10:54:36.256Z,23.90
2022-09-07T10:57:49.377Z,23.90
2022-09-07T11:00:21.660Z,23.90
2022-09-07T11:06:21.756Z,23.90
2022-09-07T11:09:19.099Z,23.80
2022-09-07T11:12:07.369Z,23.80
2022-09-07T11:14:45.382Z,23.80
2022-09-07T11:17:26.451Z,23.80
2022-09-07T11:20:12.468Z,23.70
2022-09-07T11:22:47.380Z,23.90
2022-09-07T11:25:35.268Z,23.90
2022-09-07T11:28:25.430Z,24.00
2022-09-07T11:31:00.638Z,24.10
2022-09-07T11:34:23.789Z,24.20
2022-09-07T11:36:44.104Z,24.30
2022-09-07T11:39:23.493Z,24.40
2022-09-07T11:42:42.937Z,24.30
2022-09-07T11:45:02.839Z,24.40
2022-09-07T11:47:54.328Z,24.40
2022-09-07T11:50:24.389Z,24.40
2022-09-07T11:52:58.983Z,24.30
2022-09-07T11:55:33.736Z,24.30
2022-09-07T11:58:38.092Z,24.40
2022-09-07T12:02:12.460Z,24.50
2022-09-07T12:04:50.018Z,24.60
2022-09-07T12:07:42.299Z,24.70
2022-09-07T12:10:49.563Z,24.50
2022-09-07T12:14:12.562Z,24.40
2022-09-07T12:16:48.141Z,24.50
2022-09-07T12:19:28.460Z,24.50
2022-09-07T12:22:00.037Z,24.60
2022-09-07T12:25:09.688Z,24.50
2022-09-07T12:27:38.667Z,24.40
2022-09-07T12:30:05.359Z,24.40
2022-09-07T12:32:55.673Z,24.50
2022-09-07T12:35:47.304Z,24.50
2022-09-07T12:38:16.708Z,24.50
2022-09-07T12:40:58.908Z,24.50
2022-09-07T12:43:45.801Z,24.50
2022-09-07T12:46:44.832Z,24.50
2022-09-07T12:49:43.509Z,24.60
2022-09-07T12:52:47.831Z,24.60
2022-09-07T12:56:15.576Z,24.70
2022-09-07T12:58:53.328Z,24.70
2022-09-07T13:01:35.206Z,24.80
2022-09-07T13:04:41.173Z,24.90
2022-09-07T13:07:41.439Z,24.90
2022-09-07T13:10:31.360Z,24.90
2022-09-07T13:13:18.490Z,24.90
2022-09-07T13:16:12.100Z,24.90
2022-09-07T13:18:43.199Z,24.80
2022-09-07T13:21:10.919Z,24.90
2022-09-07T13:27:28.292Z,24.70
2022-09-07T13:30:15.560Z,24.70
2022-09-07T13:35:31.956Z,24.50
2022-09-07T13:38:04.763Z,24.70
2022-09-07T13:40:40.184Z,24.80
2022-09-07T13:43:20.193Z,24.80
2022-09-07T13:46:01.229Z,24.80
2022-09-07T13:49:01.135Z,24.70
2022-09-07T13:52:02.315Z,24.60
2022-09-07T13:55:02.851Z,24.40
2022-09-07T13:58:03.930Z,24.50
2022-09-07T14:00:31.233Z,24.50
2022-09-07T14:03:06.400Z,24.70
2022-09-07T14:05:33.484Z,24.80
2022-09-07T14:08:00.427Z,24.80
2022-09-07T14:10:28.163Z,24.90
2022-09-07T14:13:07.874Z,25.00
2022-09-07T14:15:41.220Z,25.00
2022-09-07T14:18:19.560Z,24.90
2022-09-07T14:20:52.991Z,24.90
2022-09-07T14:23:29.881Z,24.90
2022-09-07T14:26:21.919Z,24.80
2022-09-07T14:28:56.319Z,24.90
2022-09-07T14:31:25.455Z,24.80
2022-09-07T14:33:56.876Z,24.70
2022-09-07T14:36:45.351Z,24.50
2022-09-07T14:39:17.561Z,24.30
2022-09-07T14:41:45.831Z,24.30
2022-09-07T14:44:42.897Z,24.30
2022-09-07T14:47:33.838Z,24.30
2022-09-07T14:50:06.181Z,24.40
2022-09-07T14:53:33.200Z,24.40
2022-09-07T14:55:37.201Z,24.60
2022-09-07T14:58:15.887Z,24.60
2022-09-07T15:00:44.718Z,24.80
2022-09-07T15:03:32.139Z,24.70
2022-09-07T15:06:03.483Z,24.50
2022-09-07T15:08:43.075Z,24.50
2022-09-07T15:11:33.338Z,24.50
2022-09-07T15:14:09.172Z,24.60
2022-09-07T15:16:42.876Z,24.50
2022-09-07T15:19:16.050Z,24.60
2022-09-07T15:21:44.414Z,24.70
2022-09-07T15:24:12.299Z,24.70
2022-09-07T15:29:29.121Z,24.50
2022-09-07T15:32:03.883Z,24.70
2022-09-07T15:34:33.226Z,24.80
2022-09-07T15:37:02.414Z,24.90
2022-09-07T15:39:31.010Z,24.90
2022-09-07T15:42:00.575Z,24.90
2022-09-07T15:44:45.197Z,24.90
2022-09-07T15:49:59.146Z,24.70
2022-09-07T15:52:25.874Z,24.80
2022-09-07T15:54:52.666Z,24.80
2022-09-07T16:00:07.413Z,24.80
2022-09-07T16:05:30.779Z,24.80
2022-09-07T16:10:53.486Z,24.60
2022-09-07T16:13:23.737Z,24.50
2022-09-07T16:15:50.518Z,24.40
2022-09-07T16:18:18.316Z,24.40
2022-09-07T16:20:46.139Z,24.40
2022-09-07T16:23:15.610Z,24.40
2022-09-07T16:25:57.253Z,24.50
2022-09-07T16:28:25.507Z,24.40
2022-09-07T16:30:52.413Z,24.50
2022-09-07T16:33:19.206Z,24.40
2022-09-07T16:35:59.522Z,24.40
2022-09-07T16:38:44.978Z,24.40
2022-09-07T16:41:22.638Z,24.50
2022-09-07T16:43:50.071Z,24.30
2022-09-07T16:46:21.071Z,24.30
2022-09-07T16:48:49.790Z,24.10
2022-09-07T16:51:21.113Z,24.00
2022-09-07T16:53:50.418Z,24.10
2022-09-07T16:56:23.679Z,24.00
2022-09-07T16:58:59.860Z,23.90
2022-09-07T17:01:34.559Z,23.90
2022-09-07T17:04:05.614Z,23.90
2022-09-07T17:06:36.807Z,23.80
2022-09-07T17:09:04.597Z,23.70
2022-09-07T17:11:34.896Z,23.60
2022-09-07T17:14:02.266Z,23.60
2022-09-07T17:16:38.493Z,23.50
2022-09-07T17:21:55.443Z,23.40
2022-09-07T17:24:24.337Z,23.40
2022-09-07T17:26:51.182Z,23.30
2022-09-07T17:29:18.263Z,23.20
2022-09-07T17:34:32.092Z,23.20
2022-09-07T17:37:00.667Z,23.10
2022-09-07T17:39:28.510Z,23.10
2022-09-07T17:41:55.392Z,23.00
2022-09-07T17:44:23.295Z,22.90
2022-09-07T17:46:50.726Z,22.80
2022-09-07T17:49:17.787Z,22.70
2022-09-07T17:51:46.175Z,22.70
2022-09-07T17:54:17.320Z,22.60
2022-09-07T17:56:45.594Z,22.50
2022-09-07T18:02:00.925Z,22.30
2022-09-07T18:04:28.686Z,22.20
2022-09-07T18:06:56.124Z,22.10
2022-09-07T18:09:23.072Z,22.00
2022-09-07T18:11:50.572Z,22.00
2022-09-07T18:14:19.142Z,21.90
2022-09-07T18:16:49.213Z,21.80
2022-09-07T18:19:18.336Z,21.70
2022-09-07T18:21:46.249Z,21.70
2022-09-07T18:24:23.245Z,21.60
2022-09-07T18:26:53.323Z,21.50
2022-09-07T18:29:29.228Z,21.50
2022-09-07T18:31:58.969Z,21.50
2022-09-07T18:34:28.403Z,21.40
2022-09-07T18:36:55.512Z,21.40
2022-09-07T18:39:22.669Z,21.30
2022-09-07T18:41:49.448Z,21.20
2022-09-07T18:47:03.275Z,21.20
2022-09-07T18:49:30.040Z,21.00
2022-09-07T18:54:43.574Z,21.00
2022-09-07T18:57:10.558Z,20.80
2022-09-07T18:59:37.396Z,20.80
2022-09-07T19:02:06.372Z,20.80
2022-09-07T19:07:24.969Z,20.80
2022-09-07T19:09:56.161Z,20.70
2022-09-07T19:12:24.029Z,20.60
2022-09-07T19:14:50.924Z,20.60
2022-09-07T19:17:17.798Z,20.60
2022-09-07T19:19:44.645Z,20.50
2022-09-07T19:22:11.405Z,20.50
2022-09-07T19:24:38.247Z,20.50
2022-09-07T19:27:07.055Z,20.50
2022-09-07T19:29:33.961Z,20.40
2022-09-07T19:32:07.607Z,20.40
2022-09-07T19:34:37.132Z,20.40
2022-09-07T19:37:06.179Z,20.30
2022-09-07T19:39:33.402Z,20.20
2022-09-07T19:42:00.681Z,20.20
2022-09-07T19:44:27.873Z,20.10
2022-09-07T19:46:54.919Z,20.10
2022-09-07T19:49:21.866Z,20.10
2022-09-07T19:51:51.066Z,20.00
2022-09-07T19:54:18.312Z,20.00
2022-09-07T19:56:45.057Z,20.00
2022-09-07T19:59:12.751Z,19.90
2022-09-07T20:01:40.573Z,19.90
2022-09-07T20:04:17.388Z,19.90
2022-09-07T20:06:49.539Z,19.80
2022-09-07T20:09:18.569Z,19.80
2022-09-07T20:11:47.500Z,19.80
2022-09-07T20:14:16.352Z,19.70
2022-09-07T20:16:43.528Z,19.60
2022-09-07T20:19:14.469Z,19.50
2022-09-07T20:21:41.975Z,19.50
2022-09-07T20:24:11.507Z,19.50
2022-09-07T20:26:38.246Z,19.40
2022-09-07T20:29:26.253Z,19.40
2022-09-07T20:31:53.366Z,19.40
2022-09-07T20:34:20.214Z,19.30
2022-09-07T20:36:50.211Z,19.20
2022-09-07T20:39:17.530Z,19.20
2022-09-07T20:41:44.512Z,19.20
2022-09-07T20:44:11.402Z,19.20
2022-09-07T20:46:38.162Z,19.20
2022-09-07T20:49:05.364Z,19.20
2022-09-07T20:51:32.619Z,19.20
2022-09-07T20:53:59.743Z,19.20
2022-09-07T20:56:28.821Z,19.10
2022-09-07T20:58:59.966Z,19.10
2022-09-07T21:01:28.817Z,19.10
2022-09-07T21:03:58.167Z,19.20
2022-09-07T21:06:26.644Z,19.20
2022-09-07T21:08:54.370Z,19.20
2022-09-07T21:11:28.920Z,19.20
2022-09-07T21:14:10.208Z,19.20
2022-09-07T21:16:37.521Z,19.20
2022-09-07T21:19:07.984Z,19.10
2022-09-07T21:21:39.610Z,19.10
2022-09-07T21:24:15.288Z,19.10
2022-09-07T21:26:42.091Z,19.20
2022-09-07T21:29:17.883Z,19.10
2022-09-07T21:31:45.054Z,19.10
2022-09-07T21:34:12.095Z,19.10
2022-09-07T21:36:38.831Z,19.10
2022-09-07T21:39:06.789Z,19.10
2022-09-07T21:41:33.558Z,19.10
2022-09-07T21:44:03.399Z,19.10
2022-09-07T21:46:33.679Z,19.10
2022-09-07T21:49:01.044Z,19.10
2022-09-07T21:51:28.644Z,19.10
2022-09-07T21:53:59.362Z,19.00
2022-09-07T21:56:28.762Z,19.00
2022-09-07T21:58:58.064Z,19.00
2022-09-07T22:01:28.126Z,19.00
2022-09-07T22:03:59.155Z,19.10
2022-09-07T22:06:28.110Z,19.10
2022-09-07T22:08:55.972Z,19.10
2022-09-07T22:11:25.564Z,19.20
2022-09-07T22:14:01.705Z,19.20
2022-09-07T22:16:29.558Z,19.20
2022-09-07T22:18:56.499Z,19.20
2022-09-07T22:21:27.420Z,19.20
2022-09-07T22:24:01.665Z,19.20
2022-09-07T22:26:33.316Z,19.10
2022-09-07T22:29:00.186Z,19.10
2022-09-07T22:31:31.784Z,19.10
2022-09-07T22:34:00.491Z,19.10
2022-09-07T22:36:34.591Z,19.20
2022-09-07T22:39:05.304Z,19.20
2022-09-07T22:41:35.054Z,19.20
2022-09-07T22:44:02.020Z,19.10
2022-09-07T22:46:31.548Z,19.10
2022-09-07T22:48:58.929Z,19.20
2022-09-07T22:51:27.034Z,19.10
2022-09-07T22:53:55.656Z,19.10
2022-09-07T22:56:26.525Z,19.10
2022-09-07T22:58:59.761Z,19.10
2022-09-07T23:01:29.045Z,19.10
2022-09-07T23:03:56.891Z,19.10
2022-09-07T23:06:38.545Z,19.10
2022-09-07T23:09:15.963Z,19.10
2022-09-07T23:11:44.016Z,19.20
2022-09-07T23:14:21.944Z,19.20
2022-09-07T23:16:49.545Z,19.20
2022-09-07T23:19:19.495Z,19.20
2022-09-07T23:21:46.983Z,19.20
2022-09-07T23:24:17.853Z,19.20
2022-09-07T23:26:46.675Z,19.20
2022-09-07T23:29:14.824Z,19.20
2022-09-07T23:31:42.423Z,19.30
2022-09-07T23:34:09.639Z,19.30
2022-09-07T23:36:37.269Z,19.30
2022-09-07T23:39:04.238Z,19.30
2022-09-07T23:41:31.368Z,19.40
2022-09-07T23:43:58.520Z,19.30
2022-09-07T23:46:25.365Z,19.30
2022-09-07T23:48:52.288Z,19.30
2022-09-07T23:51:23.884Z,19.30
2022-09-07T23:53:52.696Z,19.30
2022-09-07T23:56:20.537Z,19.30
2022-09-07T23:58:47.665Z,19.30
